sensor_id;sensor_type;location;lat;lon;timestamp;pressure;altitude;pressure_sealevel;temperature;humidity
44044;BME280;29709;52.396;16.796;2023-08-06T00:01:54;100849.33;;;16.49;100.00
44044;BME280;29709;52.396;16.796;2023-08-06T00:05:07;100847.24;;;16.57;100.00
44044;BME280;29709;52.396;16.796;2023-08-06T00:08:20;100818.18;;;16.53;100.00
44044;BME280;29709;52.396;16.796;2023-08-06T00:11:34;100816.89;;;16.49;100.00
44044;BME280;29709;52.396;16.796;2023-08-06T00:14:53;100822.87;;;16.53;100.00
44044;BME280;29709;52.396;16.796;2023-08-06T00:18:06;100815.61;;;16.52;100.00
44044;BME280;29709;52.396;16.796;2023-08-06T00:21:19;100812.41;;;16.48;100.00
44044;BME280;29709;52.396;16.796;2023-08-06T00:24:33;100815.59;;;16.45;100.00
44044;BME280;29709;52.396;16.796;2023-08-06T00:27:47;100814.72;;;16.44;100.00
44044;BME280;29709;52.396;16.796;2023-08-06T00:31:00;100803.42;;;16.46;100.00
44044;BME280;29709;52.396;16.796;2023-08-06T00:34:13;100793.84;;;16.49;100.00
44044;BME280;29709;52.396;16.796;2023-08-06T00:37:26;100774.43;;;16.49;100.00
44044;BME280;29709;52.396;16.796;2023-08-06T00:40:39;100760.77;;;16.47;100.00
44044;BME280;29709;52.396;16.796;2023-08-06T00:43:52;100754.55;;;16.45;100.00
44044;BME280;29709;52.396;16.796;2023-08-06T00:47:06;100748.99;;;16.45;100.00
44044;BME280;29709;52.396;16.796;2023-08-06T00:50:21;100748.82;;;16.47;100.00
44044;BME280;29709;52.396;16.796;2023-08-06T00:53:35;100747.93;;;16.46;100.00
44044;BME280;29709;52.396;16.796;2023-08-06T00:56:49;100727.66;;;16.45;100.00
44044;BME280;29709;52.396;16.796;2023-08-06T01:00:03;100715.95;;;16.50;100.00
44044;BME280;29709;52.396;16.796;2023-08-06T01:03:17;100713.61;;;16.47;100.00
44044;BME280;29709;52.396;16.796;2023-08-06T01:06:42;100698.21;;;16.44;100.00
44044;BME280;29709;52.396;16.796;2023-08-06T01:10:10;100687.33;;;16.43;100.00
44044;BME280;29709;52.396;16.796;2023-08-06T01:16:50;100681.18;;;16.48;100.00
44044;BME280;29709;52.396;16.796;2023-08-06T01:20:07;100684.80;;;16.55;100.00
44044;BME280;29709;52.396;16.796;2023-08-06T01:23:20;100670.29;;;16.53;100.00
44044;BME280;29709;52.396;16.796;2023-08-06T01:30:09;100646.38;;;16.52;100.00
44044;BME280;29709;52.396;16.796;2023-08-06T01:33:27;100636.36;;;16.51;100.00
44044;BME280;29709;52.396;16.796;2023-08-06T01:36:44;100638.71;;;16.47;100.00
44044;BME280;29709;52.396;16.796;2023-08-06T01:39:57;100636.97;;;16.46;100.00
44044;BME280;29709;52.396;16.796;2023-08-06T01:43:11;100626.52;;;16.41;100.00
44044;BME280;29709;52.396;16.796;2023-08-06T01:46:24;100633.16;;;16.47;100.00
44044;BME280;29709;52.396;16.796;2023-08-06T01:49:37;100625.88;;;16.46;100.00
44044;BME280;29709;52.396;16.796;2023-08-06T01:52:50;100612.88;;;16.47;100.00
44044;BME280;29709;52.396;16.796;2023-08-06T01:56:03;100609.05;;;16.48;100.00
44044;BME280;29709;52.396;16.796;2023-08-06T01:59:17;100600.07;;;16.52;100.00
44044;BME280;29709;52.396;16.796;2023-08-06T02:02:30;100600.07;;;16.52;100.00
44044;BME280;29709;52.396;16.796;2023-08-06T02:05:43;100575.94;;;16.46;100.00
44044;BME280;29709;52.396;16.796;2023-08-06T02:08:56;100565.27;;;16.43;100.00
44044;BME280;29709;52.396;16.796;2023-08-06T02:12:09;100524.96;;;16.27;100.00
44044;BME280;29709;52.396;16.796;2023-08-06T02:15:22;100552.70;;;16.40;100.00
44044;BME280;29709;52.396;16.796;2023-08-06T02:18:35;100547.59;;;16.37;100.00
44044;BME280;29709;52.396;16.796;2023-08-06T02:21:49;100547.77;;;16.36;100.00
44044;BME280;29709;52.396;16.796;2023-08-06T02:25:02;100535.64;;;16.37;100.00
44044;BME280;29709;52.396;16.796;2023-08-06T02:28:15;100521.34;;;16.40;100.00
44044;BME280;29709;52.396;16.796;2023-08-06T02:31:28;100513.23;;;16.38;100.00
44044;BME280;29709;52.396;16.796;2023-08-06T02:34:41;100513.00;;;16.33;100.00
44044;BME280;29709;52.396;16.796;2023-08-06T02:37:54;100504.27;;;16.30;100.00
44044;BME280;29709;52.396;16.796;2023-08-06T02:41:07;100486.55;;;16.31;100.00
44044;BME280;29709;52.396;16.796;2023-08-06T02:44:20;100475.88;;;16.34;100.00
44044;BME280;29709;52.396;16.796;2023-08-06T02:47:33;100469.91;;;16.31;100.00
44044;BME280;29709;52.396;16.796;2023-08-06T02:50:46;100465.02;;;16.26;100.00
44044;BME280;29709;52.396;16.796;2023-08-06T02:53:59;100450.48;;;16.24;100.00
44044;BME280;29709;52.396;16.796;2023-08-06T02:57:13;100443.69;;;16.27;100.00
44044;BME280;29709;52.396;16.796;2023-08-06T03:00:26;100435.78;;;16.24;100.00
44044;BME280;29709;52.396;16.796;2023-08-06T03:03:39;100421.06;;;16.23;100.00
44044;BME280;29709;52.396;16.796;2023-08-06T03:06:52;100414.03;;;16.21;100.00
44044;BME280;29709;52.396;16.796;2023-08-06T03:10:06;100392.92;;;16.20;100.00
44044;BME280;29709;52.396;16.796;2023-08-06T03:13:20;100386.52;;;16.19;100.00
44044;BME280;29709;52.396;16.796;2023-08-06T03:16:33;100381.20;;;16.18;100.00
44044;BME280;29709;52.396;16.796;2023-08-06T03:19:46;100359.24;;;16.16;100.00
44044;BME280;29709;52.396;16.796;2023-08-06T03:22:59;100358.58;;;16.14;100.00
44044;BME280;29709;52.396;16.796;2023-08-06T03:26:12;100360.94;;;16.10;100.00
44044;BME280;29709;52.396;16.796;2023-08-06T03:29:25;100338.98;;;16.09;100.00
44044;BME280;29709;52.396;16.796;2023-08-06T03:32:38;100340.05;;;16.08;100.00
44044;BME280;29709;52.396;16.796;2023-08-06T03:35:51;100334.95;;;16.05;100.00
44044;BME280;29709;52.396;16.796;2023-08-06T03:39:04;100325.12;;;16.02;100.00
44044;BME280;29709;52.396;16.796;2023-08-06T03:42:17;100326.00;;;15.96;100.00
44044;BME280;29709;52.396;16.796;2023-08-06T03:45:31;100292.73;;;15.96;100.00
44044;BME280;29709;52.396;16.796;2023-08-06T03:48:44;100293.80;;;15.95;100.00
44044;BME280;29709;52.396;16.796;2023-08-06T03:51:57;100298.51;;;15.95;100.00
44044;BME280;29709;52.396;16.796;2023-08-06T03:55:10;100285.28;;;15.97;100.00
44044;BME280;29709;52.396;16.796;2023-08-06T03:58:23;100308.94;;;15.99;100.00
44044;BME280;29709;52.396;16.796;2023-08-06T04:01:37;100322.78;;;15.99;100.00
44044;BME280;29709;52.396;16.796;2023-08-06T04:04:50;100321.93;;;15.99;100.00
44044;BME280;29709;52.396;16.796;2023-08-06T04:08:06;100307.86;;;16.00;100.00
44044;BME280;29709;52.396;16.796;2023-08-06T04:11:19;100304.45;;;15.98;100.00
44044;BME280;29709;52.396;16.796;2023-08-06T04:14:32;100291.89;;;15.96;100.00
44044;BME280;29709;52.396;16.796;2023-08-06T04:17:45;100289.97;;;15.96;100.00
44044;BME280;29709;52.396;16.796;2023-08-06T04:20:58;100294.00;;;15.94;100.00
44044;BME280;29709;52.396;16.796;2023-08-06T04:24:11;100300.84;;;15.98;100.00
44044;BME280;29709;52.396;16.796;2023-08-06T04:27:25;100312.11;;;16.03;100.00
44044;BME280;29709;52.396;16.796;2023-08-06T04:30:38;100328.94;;;16.14;100.00
44044;BME280;29709;52.396;16.796;2023-08-06T04:33:51;100331.48;;;16.23;100.00
44044;BME280;29709;52.396;16.796;2023-08-06T04:37:04;100326.56;;;16.25;100.00
44044;BME280;29709;52.396;16.796;2023-08-06T04:40:18;100322.53;;;16.27;100.00
44044;BME280;29709;52.396;16.796;2023-08-06T04:43:31;100296.51;;;16.22;100.00
44044;BME280;29709;52.396;16.796;2023-08-06T04:46:44;100293.11;;;16.13;100.00
44044;BME280;29709;52.396;16.796;2023-08-06T04:49:57;100293.99;;;16.07;100.00
44044;BME280;29709;52.396;16.796;2023-08-06T04:53:10;100307.64;;;16.08;100.00
44044;BME280;29709;52.396;16.796;2023-08-06T04:56:24;100315.51;;;16.11;100.00
44044;BME280;29709;52.396;16.796;2023-08-06T04:59:36;100339.17;;;16.14;100.00
44044;BME280;29709;52.396;16.796;2023-08-06T05:02:50;100332.99;;;16.19;100.00
44044;BME280;29709;52.396;16.796;2023-08-06T05:06:03;100323.38;;;16.21;100.00
44044;BME280;29709;52.396;16.796;2023-08-06T05:09:16;100304.84;;;16.15;100.00
44044;BME280;29709;52.396;16.796;2023-08-06T05:12:29;100295.70;;;16.08;100.00
44044;BME280;29709;52.396;16.796;2023-08-06T05:15:42;100272.46;;;16.02;100.00
44044;BME280;29709;52.396;16.796;2023-08-06T05:18:59;100261.18;;;15.91;100.00
44044;BME280;29709;52.396;16.796;2023-08-06T05:22:12;100244.59;;;15.84;100.00
44044;BME280;29709;52.396;16.796;2023-08-06T05:25:25;100241.60;;;15.79;100.00
44044;BME280;29709;52.396;16.796;2023-08-06T05:28:38;100242.45;;;15.79;100.00
44044;BME280;29709;52.396;16.796;2023-08-06T05:31:53;100251.39;;;15.81;100.00
44044;BME280;29709;52.396;16.796;2023-08-06T05:35:07;100274.41;;;15.82;100.00
44044;BME280;29709;52.396;16.796;2023-08-06T05:38:20;100281.66;;;15.90;100.00
44044;BME280;29709;52.396;16.796;2023-08-06T05:41:33;100304.65;;;16.03;100.00
44044;BME280;29709;52.396;16.796;2023-08-06T05:44:46;100322.34;;;16.09;100.00
44044;BME280;29709;52.396;16.796;2023-08-06T05:47:59;100313.59;;;16.12;100.00
44044;BME280;29709;52.396;16.796;2023-08-06T05:51:12;100296.96;;;16.12;100.00
44044;BME280;29709;52.396;16.796;2023-08-06T05:54:26;100265.20;;;16.08;100.00
44044;BME280;29709;52.396;16.796;2023-08-06T05:57:39;100227.47;;;16.07;100.00
44044;BME280;29709;52.396;16.796;2023-08-06T06:00:52;100229.62;;;15.98;100.00
44044;BME280;29709;52.396;16.796;2023-08-06T06:04:05;100231.32;;;15.99;100.00
44044;BME280;29709;52.396;16.796;2023-08-06T06:07:18;100235.80;;;16.00;100.00
44044;BME280;29709;52.396;16.796;2023-08-06T06:10:31;100220.02;;;16.01;100.00
44044;BME280;29709;52.396;16.796;2023-08-06T06:13:44;100203.37;;;16.01;100.00
44044;BME280;29709;52.396;16.796;2023-08-06T06:16:59;100202.13;;;15.97;100.00
44044;BME280;29709;52.396;16.796;2023-08-06T06:20:13;100191.26;;;15.95;100.00
44044;BME280;29709;52.396;16.796;2023-08-06T06:23:26;100167.59;;;15.93;100.00
44044;BME280;29709;52.396;16.796;2023-08-06T06:26:39;100174.20;;;15.92;100.00
44044;BME280;29709;52.396;16.796;2023-08-06T06:29:52;100143.77;;;15.85;100.00
44044;BME280;29709;52.396;16.796;2023-08-06T06:33:07;100154.63;;;15.80;100.00
44044;BME280;29709;52.396;16.796;2023-08-06T06:36:20;100159.55;;;15.78;100.00
44044;BME280;29709;52.396;16.796;2023-08-06T06:39:33;100161.02;;;15.80;100.00
44044;BME280;29709;52.396;16.796;2023-08-06T06:42:46;100161.24;;;15.79;100.00
44044;BME280;29709;52.396;16.796;2023-08-06T06:46:00;100146.10;;;15.81;100.00
44044;BME280;29709;52.396;16.796;2023-08-06T06:49:13;100129.91;;;15.85;100.00
44044;BME280;29709;52.396;16.796;2023-08-06T06:52:26;100120.74;;;15.84;100.00
44044;BME280;29709;52.396;16.796;2023-08-06T06:55:39;100131.17;;;15.82;100.00
44044;BME280;29709;52.396;16.796;2023-08-06T06:58:53;100127.76;;;15.87;100.00
44044;BME280;29709;52.396;16.796;2023-08-06T07:02:06;100128.84;;;15.79;100.00
44044;BME280;29709;52.396;16.796;2023-08-06T07:05:19;100128.22;;;15.77;100.00
44044;BME280;29709;52.396;16.796;2023-08-06T07:08:32;100116.70;;;15.80;100.00
44044;BME280;29709;52.396;16.796;2023-08-06T07:11:45;100122.01;;;15.82;100.00
44044;BME280;29709;52.396;16.796;2023-08-06T07:14:59;100122.01;;;15.82;100.00
44044;BME280;29709;52.396;16.796;2023-08-06T07:18:12;100120.91;;;15.90;100.00
44044;BME280;29709;52.396;16.796;2023-08-06T07:21:25;100119.21;;;15.95;100.00
44044;BME280;29709;52.396;16.796;2023-08-06T07:24:38;100116.44;;;15.95;100.00
44044;BME280;29709;52.396;16.796;2023-08-06T07:27:51;100116.62;;;16.00;100.00
44044;BME280;29709;52.396;16.796;2023-08-06T07:31:04;100117.01;;;16.04;100.00
44044;BME280;29709;52.396;16.796;2023-08-06T07:34:18;100113.62;;;16.02;100.00
44044;BME280;29709;52.396;16.796;2023-08-06T07:37:31;100094.21;;;16.02;100.00
44044;BME280;29709;52.396;16.796;2023-08-06T07:44:14;100093.59;;;16.00;100.00
44044;BME280;29709;52.396;16.796;2023-08-06T07:47:27;100085.10;;;15.95;100.00
44044;BME280;29709;52.396;16.796;2023-08-06T07:50:40;100090.41;;;15.96;100.00
44044;BME280;29709;52.396;16.796;2023-08-06T07:53:54;100094.44;;;16.00;100.00
44044;BME280;29709;52.396;16.796;2023-08-06T07:57:07;100092.28;;;16.02;100.00
44044;BME280;29709;52.396;16.796;2023-08-06T08:00:20;100096.56;;;16.05;100.00
44044;BME280;29709;52.396;16.796;2023-08-06T08:03:33;100096.51;;;16.11;100.00
44044;BME280;29709;52.396;16.796;2023-08-06T08:06:46;100102.91;;;16.12;100.00
44044;BME280;29709;52.396;16.796;2023-08-06T08:10:00;100075.63;;;16.09;100.00
44044;BME280;29709;52.396;16.796;2023-08-06T08:13:13;100084.40;;;16.06;100.00
44044;BME280;29709;52.396;16.796;2023-08-06T08:16:26;100086.32;;;16.05;100.00
44044;BME280;29709;52.396;16.796;2023-08-06T08:19:40;100106.34;;;16.07;100.00
44044;BME280;29709;52.396;16.796;2023-08-06T08:22:54;100101.20;;;16.11;100.00
44044;BME280;29709;52.396;16.796;2023-08-06T08:26:07;100107.15;;;16.14;100.00
44044;BME280;29709;52.396;16.796;2023-08-06T08:29:20;100095.20;;;16.14;100.00
44044;BME280;29709;52.396;16.796;2023-08-06T08:35:34;100038.52;;;16.10;100.00
44044;BME280;29709;52.396;16.796;2023-08-06T08:38:48;100019.34;;;16.08;100.00
44044;BME280;29709;52.396;16.796;2023-08-06T08:42:06;100012.95;;;16.08;100.00
44044;BME280;29709;52.396;16.796;2023-08-06T08:45:22;100006.81;;;15.99;100.00
44044;BME280;29709;52.396;16.796;2023-08-06T08:48:39;100007.21;;;16.03;100.00
44044;BME280;29709;52.396;16.796;2023-08-06T08:51:53;100027.04;;;16.06;100.00
44044;BME280;29709;52.396;16.796;2023-08-06T08:55:10;100014.66;;;16.09;100.00
44044;BME280;29709;52.396;16.796;2023-08-06T08:58:23;100002.22;;;16.18;100.00
44044;BME280;29709;52.396;16.796;2023-08-06T09:01:37;99980.66;;;16.20;100.00
44044;BME280;29709;52.396;16.796;2023-08-06T09:04:52;99994.34;;;16.15;100.00
44044;BME280;29709;52.396;16.796;2023-08-06T09:08:08;99980.82;;;16.25;100.00
44044;BME280;29709;52.396;16.796;2023-08-06T09:11:24;99995.72;;;16.31;100.00
44044;BME280;29709;52.396;16.796;2023-08-06T09:14:37;99988.59;;;16.41;100.00
44044;BME280;29709;52.396;16.796;2023-08-06T09:17:54;99976.20;;;16.44;100.00
44044;BME280;29709;52.396;16.796;2023-08-06T09:21:13;99950.50;;;16.30;100.00
44044;BME280;29709;52.396;16.796;2023-08-06T09:24:30;99940.49;;;16.29;100.00
44044;BME280;29709;52.396;16.796;2023-08-06T09:27:46;99939.41;;;16.30;100.00
44044;BME280;29709;52.396;16.796;2023-08-06T09:31:00;99941.34;;;16.30;100.00
44044;BME280;29709;52.396;16.796;2023-08-06T09:34:16;99920.47;;;16.27;100.00
44044;BME280;29709;52.396;16.796;2023-08-06T09:37:37;99920.80;;;16.37;100.00
44044;BME280;29709;52.396;16.796;2023-08-06T09:40:50;99926.02;;;16.45;100.00
44044;BME280;29709;52.396;16.796;2023-08-06T09:44:03;99920.28;;;16.47;100.00
44044;BME280;29709;52.396;16.796;2023-08-06T09:47:16;99911.55;;;16.43;100.00
44044;BME280;29709;52.396;16.796;2023-08-06T09:50:32;99887.68;;;16.42;100.00
44044;BME280;29709;52.396;16.796;2023-08-06T09:53:47;99883.66;;;16.38;100.00
44044;BME280;29709;52.396;16.796;2023-08-06T09:57:01;99914.80;;;16.40;100.00
44044;BME280;29709;52.396;16.796;2023-08-06T10:00:15;99910.34;;;16.39;100.00
44044;BME280;29709;52.396;16.796;2023-08-06T10:06:59;99892.89;;;16.32;100.00
44044;BME280;29709;52.396;16.796;2023-08-06T10:10:12;99880.95;;;16.32;100.00
44044;BME280;29709;52.396;16.796;2023-08-06T10:13:26;99895.61;;;16.39;100.00
44044;BME280;29709;52.396;16.796;2023-08-06T10:16:41;99895.37;;;16.40;100.00
44044;BME280;29709;52.396;16.796;2023-08-06T10:19:54;99886.16;;;16.47;100.00
44044;BME280;29709;52.396;16.796;2023-08-06T10:23:09;99866.95;;;16.45;100.00
44044;BME280;29709;52.396;16.796;2023-08-06T10:26:28;99865.44;;;16.49;100.00
44044;BME280;29709;52.396;16.796;2023-08-06T10:29:42;99883.52;;;16.52;100.00
44044;BME280;29709;52.396;16.796;2023-08-06T10:33:02;99890.95;;;16.58;100.00
44044;BME280;29709;52.396;16.796;2023-08-06T10:36:15;99872.81;;;16.55;100.00
44044;BME280;29709;52.396;16.796;2023-08-06T10:39:29;99824.43;;;16.51;100.00
44044;BME280;29709;52.396;16.796;2023-08-06T10:42:44;99826.50;;;16.56;100.00
44044;BME280;29709;52.396;16.796;2023-08-06T10:45:59;99843.69;;;16.64;100.00
44044;BME280;29709;52.396;16.796;2023-08-06T10:49:13;99854.55;;;16.66;100.00
44044;BME280;29709;52.396;16.796;2023-08-06T10:52:30;99855.87;;;16.63;100.00
44044;BME280;29709;52.396;16.796;2023-08-06T10:55:43;99833.44;;;16.65;100.00
44044;BME280;29709;52.396;16.796;2023-08-06T10:58:57;99836.92;;;16.60;100.00
44044;BME280;29709;52.396;16.796;2023-08-06T11:02:10;99847.55;;;16.63;100.00
44044;BME280;29709;52.396;16.796;2023-08-06T11:05:23;99846.09;;;16.61;100.00
44044;BME280;29709;52.396;16.796;2023-08-06T11:08:38;99860.20;;;16.59;100.00
44044;BME280;29709;52.396;16.796;2023-08-06T11:11:51;99848.86;;;16.61;100.00
44044;BME280;29709;52.396;16.796;2023-08-06T11:15:05;99856.71;;;16.64;100.00
44044;BME280;29709;52.396;16.796;2023-08-06T11:18:18;99852.45;;;16.68;100.00
44044;BME280;29709;52.396;16.796;2023-08-06T11:21:32;99866.84;;;16.77;100.00
44044;BME280;29709;52.396;16.796;2023-08-06T11:24:45;99867.01;;;16.82;100.00
44044;BME280;29709;52.396;16.796;2023-08-06T11:27:58;99873.54;;;16.87;100.00
44044;BME280;29709;52.396;16.796;2023-08-06T11:31:19;99892.96;;;16.87;100.00
44044;BME280;29709;52.396;16.796;2023-08-06T11:34:33;99889.14;;;16.88;100.00
44044;BME280;29709;52.396;16.796;2023-08-06T11:37:46;99843.85;;;16.88;100.00
44044;BME280;29709;52.396;16.796;2023-08-06T11:40:59;99770.01;;;16.87;100.00
44044;BME280;29709;52.396;16.796;2023-08-06T11:44:13;99804.71;;;16.78;100.00
44044;BME280;29709;52.396;16.796;2023-08-06T11:47:26;99852.83;;;16.71;100.00
44044;BME280;29709;52.396;16.796;2023-08-06T11:50:39;99857.44;;;16.78;100.00
44044;BME280;29709;52.396;16.796;2023-08-06T11:53:56;99847.34;;;16.83;100.00
44044;BME280;29709;52.396;16.796;2023-08-06T11:57:10;99851.81;;;16.84;100.00
44044;BME280;29709;52.396;16.796;2023-08-06T12:00:25;99863.29;;;16.88;100.00
44044;BME280;29709;52.396;16.796;2023-08-06T12:03:41;99877.09;;;16.94;100.00
44044;BME280;29709;52.396;16.796;2023-08-06T12:06:54;99881.55;;;16.95;100.00
44044;BME280;29709;52.396;16.796;2023-08-06T12:10:08;99890.98;;;16.94;100.00
44044;BME280;29709;52.396;16.796;2023-08-06T12:13:21;99879.70;;;17.08;100.00
44044;BME280;29709;52.396;16.796;2023-08-06T12:16:35;99860.50;;;17.06;100.00
44044;BME280;29709;52.396;16.796;2023-08-06T12:19:49;99850.16;;;17.13;100.00
44044;BME280;29709;52.396;16.796;2023-08-06T12:23:02;99840.51;;;17.16;100.00
44044;BME280;29709;52.396;16.796;2023-08-06T12:26:15;99837.26;;;17.19;100.00
44044;BME280;29709;52.396;16.796;2023-08-06T12:29:28;99791.53;;;17.21;100.00
44044;BME280;29709;52.396;16.796;2023-08-06T12:32:41;99763.00;;;17.14;100.00
44044;BME280;29709;52.396;16.796;2023-08-06T12:35:55;99753.34;;;17.17;100.00
44044;BME280;29709;52.396;16.796;2023-08-06T12:39:10;99756.37;;;17.15;100.00
44044;BME280;29709;52.396;16.796;2023-08-06T12:42:23;99756.37;;;17.15;100.00
44044;BME280;29709;52.396;16.796;2023-08-06T12:45:37;99773.51;;;17.12;100.00
44044;BME280;29709;52.396;16.796;2023-08-06T12:48:50;99772.19;;;17.15;100.00
44044;BME280;29709;52.396;16.796;2023-08-06T12:52:04;99769.41;;;17.15;100.00
44044;BME280;29709;52.396;16.796;2023-08-06T12:55:21;99760.47;;;17.13;100.00
44044;BME280;29709;52.396;16.796;2023-08-06T12:58:35;99767.36;;;17.10;100.00
44044;BME280;29709;52.396;16.796;2023-08-06T13:01:48;99772.66;;;17.12;100.00
44044;BME280;29709;52.396;16.796;2023-08-06T13:05:02;99772.34;;;17.20;100.00
44044;BME280;29709;52.396;16.796;2023-08-06T13:08:18;99762.80;;;17.27;100.00
44044;BME280;29709;52.396;16.796;2023-08-06T13:11:31;99754.23;;;17.29;100.00
44044;BME280;29709;52.396;16.796;2023-08-06T13:14:45;99762.80;;;17.27;100.00
44044;BME280;29709;52.396;16.796;2023-08-06T13:17:58;99756.39;;;17.27;100.00
44044;BME280;29709;52.396;16.796;2023-08-06T13:21:11;99749.40;;;17.24;100.00
44044;BME280;29709;52.396;16.796;2023-08-06T13:24:25;99746.86;;;17.23;100.00
44044;BME280;29709;52.396;16.796;2023-08-06T13:27:40;99759.90;;;17.22;100.00
44044;BME280;29709;52.396;16.796;2023-08-06T13:30:53;99753.86;;;17.25;100.00
44044;BME280;29709;52.396;16.796;2023-08-06T13:34:06;99758.90;;;17.17;100.00
44044;BME280;29709;52.396;16.796;2023-08-06T13:37:19;99751.80;;;17.21;100.00
44044;BME280;29709;52.396;16.796;2023-08-06T13:40:33;99765.30;;;17.17;99.95
44044;BME280;29709;52.396;16.796;2023-08-06T13:43:47;99771.09;;;17.16;100.00
44044;BME280;29709;52.396;16.796;2023-08-06T13:47:00;99771.09;;;17.16;100.00
44044;BME280;29709;52.396;16.796;2023-08-06T13:50:13;99775.12;;;17.20;100.00
44044;BME280;29709;52.396;16.796;2023-08-06T13:53:27;99772.09;;;17.21;100.00
44044;BME280;29709;52.396;16.796;2023-08-06T13:56:42;99776.80;;;17.21;100.00
44044;BME280;29709;52.396;16.796;2023-08-06T13:59:56;99765.45;;;17.22;99.49
44044;BME280;29709;52.396;16.796;2023-08-06T14:03:09;99759.90;;;17.22;99.18
44044;BME280;29709;52.396;16.796;2023-08-06T14:06:22;99762.41;;;17.12;99.60
44044;BME280;29709;52.396;16.796;2023-08-06T14:09:35;99756.61;;;17.14;100.00
44044;BME280;29709;52.396;16.796;2023-08-06T14:12:49;99757.94;;;17.11;99.86
44044;BME280;29709;52.396;16.796;2023-08-06T14:16:02;99749.45;;;17.06;99.99
44044;BME280;29709;52.396;16.796;2023-08-06T14:19:15;99758.38;;;17.08;99.66
44044;BME280;29709;52.396;16.796;2023-08-06T14:22:28;99749.37;;;17.13;100.00
44044;BME280;29709;52.396;16.796;2023-08-06T14:25:44;99756.37;;;17.15;99.97
44044;BME280;29709;52.396;16.796;2023-08-06T14:28:57;99751.53;;;17.11;100.00
44044;BME280;29709;52.396;16.796;2023-08-06T14:32:10;99744.30;;;17.10;99.84
44044;BME280;29709;52.396;16.796;2023-08-06T14:35:23;99728.48;;;17.10;99.88
44044;BME280;29709;52.396;16.796;2023-08-06T14:38:36;99727.16;;;17.13;99.79
44044;BME280;29709;52.396;16.796;2023-08-06T14:41:49;99731.38;;;17.15;99.53
44044;BME280;29709;52.396;16.796;2023-08-06T14:45:03;99742.12;;;17.12;99.92
44044;BME280;29709;52.396;16.796;2023-08-06T14:48:17;99752.38;;;17.11;99.68
44044;BME280;29709;52.396;16.796;2023-08-06T14:51:30;99749.61;;;17.11;99.69
44044;BME280;29709;52.396;16.796;2023-08-06T14:54:43;99764.34;;;17.12;100.00
44044;BME280;29709;52.396;16.796;2023-08-06T14:57:56;99764.42;;;17.05;99.42
44044;BME280;29709;52.396;16.796;2023-08-06T15:01:10;99764.66;;;17.03;99.51
44044;BME280;29709;52.396;16.796;2023-08-06T15:04:24;99750.77;;;17.03;100.00
44044;BME280;29709;52.396;16.796;2023-08-06T15:07:37;99747.48;;;16.95;99.32
44044;BME280;29709;52.396;16.796;2023-08-06T15:10:51;99761.48;;;16.88;99.67
44044;BME280;29709;52.396;16.796;2023-08-06T15:14:05;99778.34;;;16.87;99.70
44044;BME280;29709;52.396;16.796;2023-08-06T15:17:19;99793.05;;;16.87;100.00
44044;BME280;29709;52.396;16.796;2023-08-06T15:20:33;99799.31;;;16.83;100.00
44044;BME280;29709;52.396;16.796;2023-08-06T15:23:46;99795.94;;;16.81;100.00
44044;BME280;29709;52.396;16.796;2023-08-06T15:27:00;99802.95;;;16.83;99.91
44044;BME280;29709;52.396;16.796;2023-08-06T15:30:13;99800.64;;;16.80;99.45
44044;BME280;29709;52.396;16.796;2023-08-06T15:33:26;99817.13;;;16.75;98.88
44044;BME280;29709;52.396;16.796;2023-08-06T15:36:39;99823.16;;;16.72;99.93
44044;BME280;29709;52.396;16.796;2023-08-06T15:39:52;99830.31;;;16.80;100.00
44044;BME280;29709;52.396;16.796;2023-08-06T15:43:06;99832.38;;;16.84;100.00
44044;BME280;29709;52.396;16.796;2023-08-06T15:46:19;99837.15;;;16.95;100.00
44044;BME280;29709;52.396;16.796;2023-08-06T15:49:32;99850.35;;;17.00;100.00
44044;BME280;29709;52.396;16.796;2023-08-06T15:52:45;99859.96;;;16.97;98.75
44044;BME280;29709;52.396;16.796;2023-08-06T15:55:59;99879.63;;;16.96;98.69
44044;BME280;29709;52.396;16.796;2023-08-06T16:02:37;99884.57;;;16.94;99.22
44044;BME280;29709;52.396;16.796;2023-08-06T16:05:51;99895.30;;;16.90;99.06
44044;BME280;29709;52.396;16.796;2023-08-06T16:09:04;99902.55;;;16.91;99.25
44044;BME280;29709;52.396;16.796;2023-08-06T16:12:17;99908.34;;;16.90;98.77
44044;BME280;29709;52.396;16.796;2023-08-06T16:15:32;99917.51;;;16.90;98.94
44044;BME280;29709;52.396;16.796;2023-08-06T16:18:46;99921.97;;;16.91;98.47
44044;BME280;29709;52.396;16.796;2023-08-06T16:21:59;99927.77;;;16.90;98.49
44044;BME280;29709;52.396;16.796;2023-08-06T16:25:13;99928.12;;;16.75;98.48
44044;BME280;29709;52.396;16.796;2023-08-06T16:28:27;99942.70;;;16.70;98.57
44044;BME280;29709;52.396;16.796;2023-08-06T16:31:41;99927.21;;;16.56;99.09
44044;BME280;29709;52.396;16.796;2023-08-06T16:34:55;99932.44;;;16.46;98.19
44044;BME280;29709;52.396;16.796;2023-08-06T16:38:08;99922.31;;;16.33;99.31
44044;BME280;29709;52.396;16.796;2023-08-06T16:41:23;99923.62;;;16.31;99.79
44044;BME280;29709;52.396;16.796;2023-08-06T16:44:37;99933.02;;;16.30;98.73
44044;BME280;29709;52.396;16.796;2023-08-06T16:47:50;99926.91;;;16.21;100.00
44044;BME280;29709;52.396;16.796;2023-08-06T16:51:03;99943.77;;;16.20;99.83
44044;BME280;29709;52.396;16.796;2023-08-06T16:54:17;99944.23;;;16.16;100.00